Wetterdaten: Woche 25.04.16 - 01.05.16 (KW17)
Datum Zeit Temp. A. Feuchte A. Luftdruck Regen Wind Richtung Sonnenschein ET UV Solar Taupunkt Windchill Windben Empfang
25.04.2016 00:00 2,3 C 90 % 1010,6 hPa 0,0 l/m 10,1 km/h (2 Bft) W-SW 0,00 h 0,000 mm 0,0 UV-I 0 W/m 0,9 C -0,8 C 14,7 km/h (3 Bft) 97,37 %
25.04.2016 01:00 2,0 C 91 % 1010,9 hPa 0,0 l/m 7,6 km/h (2 Bft) SW 0,00 h 0,000 mm 0,0 UV-I 0 W/m 0,7 C 0,6 C 11,4 km/h (2 Bft) 97,19 %
25.04.2016 02:00 2,1 C 90 % 1010,6 hPa 0,0 l/m 9,3 km/h (2 Bft) W-SW 0,00 h 0,000 mm 0,0 UV-I 0 W/m 0,5 C -0,5 C 13,6 km/h (3 Bft) 98,87 %
25.04.2016 03:00 2,3 C 89 % 1010,5 hPa 0,0 l/m 8,7 km/h (2 Bft) W-SW 0,00 h 0,000 mm 0,0 UV-I 0 W/m 0,7 C 0,3 C 12,5 km/h (3 Bft) 97,22 %
25.04.2016 04:00 2,3 C 88 % 1010,4 hPa 0,0 l/m 6,4 km/h (2 Bft) W-SW 0,00 h 0,000 mm 0,0 UV-I 0 W/m 0,5 C 1,7 C 10,0 km/h (2 Bft) 98,66 %
25.04.2016 05:00 2,4 C 87 % 1010,2 hPa 0,0 l/m 6,8 km/h (2 Bft) W 0,00 h 0,000 mm 0,0 UV-I 0 W/m 0,4 C 1,4 C 11,2 km/h (2 Bft) 97,20 %
25.04.2016 06:00 2,3 C 85 % 1010,4 hPa 0,0 l/m 7,1 km/h (2 Bft) W 0,00 h 0,000 mm 0,0 UV-I 10 W/m 0,0 C 1,0 C 12,2 km/h (2 Bft) 98,81 %
25.04.2016 07:00 2,2 C 85 % 1010,7 hPa 0,0 l/m 7,6 km/h (2 Bft) W 0,00 h 0,000 mm 0,0 UV-I 39 W/m -0,1 C 0,6 C 12,1 km/h (2 Bft) 97,29 %
25.04.2016 08:00 2,3 C 90 % 1010,9 hPa 0,0 l/m 10,3 km/h (2 Bft) W 0,30 h 0,025 mm 0,6 UV-I 186 W/m 0,8 C -1,0 C 16,0 km/h (3 Bft) 99,06 %
25.04.2016 09:00 3,9 C 79 % 1010,8 hPa 0,0 l/m 10,4 km/h (2 Bft) W-SW 0,62 h 0,077 mm 1,1 UV-I 416 W/m 0,7 C 0,7 C 16,9 km/h (3 Bft) 97,33 %
25.04.2016 10:00 4,5 C 69 % 1010,9 hPa 0,0 l/m 11,2 km/h (2 Bft) W-SW 0,00 h 0,177 mm 1,2 UV-I 203 W/m -0,6 C 1,0 C 18,2 km/h (3 Bft) 99,14 %
25.04.2016 11:00 2,2 C 88 % 1011,4 hPa 0,4 l/m 9,0 km/h (2 Bft) W 0,35 h 0,127 mm 2,3 UV-I 351 W/m 0,5 C -0,3 C 14,5 km/h (3 Bft) 97,44 %
25.04.2016 12:00 4,8 C 81 % 1010,7 hPa 1,2 l/m 7,8 km/h (2 Bft) W 0,45 h 0,127 mm 2,5 UV-I 514 W/m 1,7 C 3,4 C 14,1 km/h (3 Bft) 98,18 %
25.04.2016 13:00 5,2 C 76 % 1010,5 hPa 0,0 l/m 8,8 km/h (2 Bft) W 0,48 h 0,204 mm 2,3 UV-I 547 W/m 1,4 C 3,1 C 15,7 km/h (3 Bft) 98,78 %
25.04.2016 14:00 6,5 C 67 % 1010,5 hPa 0,0 l/m 16,4 km/h (3 Bft) W-SW 0,77 h 0,228 mm 2,8 UV-I 709 W/m 0,8 C 0,6 C 25,1 km/h (4 Bft) 97,36 %
25.04.2016 15:00 3,9 C 81 % 1010,8 hPa 0,2 l/m 16,9 km/h (3 Bft) W-SW 0,10 h 0,330 mm 1,1 UV-I 156 W/m 0,9 C -2,9 C 24,5 km/h (4 Bft) 99,03 %
25.04.2016 16:00 3,7 C 86 % 1010,8 hPa 0,8 l/m 7,8 km/h (2 Bft) W-SW 0,55 h 0,077 mm 1,3 UV-I 364 W/m 1,6 C 1,9 C 12,7 km/h (3 Bft) 97,16 %
25.04.2016 17:00 4,6 C 81 % 1010,5 hPa 0,0 l/m 13,4 km/h (3 Bft) SW 0,40 h 0,127 mm 0,5 UV-I 215 W/m 1,5 C -0,3 C 19,8 km/h (4 Bft) 98,71 %
25.04.2016 18:00 4,4 C 80 % 1010,3 hPa 0,0 l/m 15,2 km/h (3 Bft) SW 0,27 h 0,101 mm 0,4 UV-I 104 W/m 1,2 C -1,6 C 22,1 km/h (4 Bft) 97,22 %
25.04.2016 19:00 3,8 C 80 % 1010,5 hPa 0,0 l/m 11,3 km/h (2 Bft) SW 0,02 h 0,076 mm 0,0 UV-I 24 W/m 0,6 C -0,0 C 17,1 km/h (3 Bft) 98,52 %
25.04.2016 20:00 2,9 C 85 % 1010,7 hPa 0,0 l/m 7,6 km/h (2 Bft) S-SW 0,00 h 0,026 mm 0,0 UV-I 5 W/m 0,7 C 1,4 C 12,1 km/h (2 Bft) 98,30 %
25.04.2016 21:00 2,4 C 88 % 1010,7 hPa 0,0 l/m 4,1 km/h (1 Bft) S 0,00 h 0,000 mm 0,0 UV-I 0 W/m 0,5 C 2,3 C 6,2 km/h (2 Bft) 98,89 %
25.04.2016 22:00 2,0 C 89 % 1010,2 hPa 0,0 l/m 6,9 km/h (2 Bft) S-SW 0,00 h 0,000 mm 0,0 UV-I 0 W/m 0,4 C 1,0 C 10,0 km/h (2 Bft) 97,22 %
25.04.2016 23:00 2,1 C 90 % 1009,8 hPa 0,0 l/m 2,4 km/h (1 Bft) S 0,00 h 0,000 mm 0,0 UV-I 0 W/m 0,6 C 2,1 C 3,7 km/h (1 Bft) 99,10 %
26.04.2016 00:00 1,6 C 91 % 1009,1 hPa 0,0 l/m 0,5 km/h (0 Bft) S 0,00 h 0,000 mm 0,0 UV-I 0 W/m 0,2 C 1,6 C 1,3 km/h (1 Bft) 97,54 %
26.04.2016 01:00 1,7 C 93 % 1008,4 hPa 0,0 l/m 1,4 km/h (1 Bft) S-SO 0,00 h 0,000 mm 0,0 UV-I 0 W/m 0,7 C 1,7 C 2,6 km/h (1 Bft) 99,02 %
26.04.2016 02:00 1,1 C 93 % 1007,8 hPa 0,0 l/m 1,0 km/h (0 Bft) N-NW 0,00 h 0,000 mm 0,0 UV-I 0 W/m 0,1 C 1,1 C 1,9 km/h (1 Bft) 97,11 %
26.04.2016 03:00 1,3 C 95 % 1007,2 hPa 0,0 l/m 1,1 km/h (1 Bft) O-SO 0,00 h 0,000 mm 0,0 UV-I 0 W/m 0,5 C 1,3 C 1,9 km/h (1 Bft) 99,14 %
26.04.2016 04:00 1,2 C 94 % 1006,3 hPa 0,0 l/m 2,6 km/h (1 Bft) O-NO 0,00 h 0,000 mm 0,0 UV-I 0 W/m 0,3 C 1,1 C 3,8 km/h (1 Bft) 97,59 %
26.04.2016 05:00 0,8 C 95 % 1005,5 hPa 0,0 l/m 3,3 km/h (1 Bft) NO 0,00 h 0,000 mm 0,0 UV-I 7 W/m 0,1 C 0,8 C 4,6 km/h (1 Bft) 98,94 %
26.04.2016 06:00 1,0 C 95 % 1005,6 hPa 0,0 l/m 2,2 km/h (1 Bft) NO 0,02 h 0,000 mm 0,0 UV-I 23 W/m 0,4 C 1,0 C 3,8 km/h (1 Bft) 97,34 %
26.04.2016 07:00 2,0 C 94 % 1005,6 hPa 0,0 l/m 2,2 km/h (1 Bft) O-SO 0,00 h 0,000 mm 0,0 UV-I 66 W/m 1,2 C 2,0 C 3,6 km/h (1 Bft) 99,32 %
26.04.2016 08:00 3,4 C 89 % 1005,5 hPa 0,0 l/m 4,2 km/h (1 Bft) SO 0,02 h 0,025 mm 0,5 UV-I 176 W/m 1,8 C 3,3 C 6,8 km/h (2 Bft) 97,81 %
26.04.2016 09:00 5,9 C 77 % 1004,8 hPa 0,0 l/m 8,7 km/h (2 Bft) S-SO 0,30 h 0,077 mm 1,0 UV-I 300 W/m 2,1 C 3,9 C 13,5 km/h (3 Bft) 98,79 %
26.04.2016 10:00 8,4 C 61 % 1004,5 hPa 0,0 l/m 7,4 km/h (2 Bft) SO 0,63 h 0,152 mm 1,9 UV-I 438 W/m 1,1 C 7,4 C 11,5 km/h (2 Bft) 97,82 %
26.04.2016 11:00 10,2 C 51 % 1003,8 hPa 0,0 l/m 8,8 km/h (2 Bft) O-NO 1,00 h 0,229 mm 2,6 UV-I 543 W/m 0,6 C 8,5 C 12,9 km/h (3 Bft) 99,02 %
26.04.2016 12:00 11,6 C 50 % 1003,3 hPa 0,0 l/m 5,4 km/h (1 Bft) N-NO 1,00 h 0,304 mm 3,5 UV-I 674 W/m 1,6 C 11,1 C 9,0 km/h (2 Bft) 97,83 %
26.04.2016 13:00 12,0 C 52 % 1003,0 hPa 0,0 l/m 4,0 km/h (1 Bft) NW 0,90 h 0,356 mm 3,0 UV-I 576 W/m 2,4 C 11,9 C 7,3 km/h (2 Bft) 99,19 %
26.04.2016 14:00 11,6 C 55 % 1002,9 hPa 0,0 l/m 4,5 km/h (1 Bft) NW 0,83 h 0,305 mm 2,4 UV-I 465 W/m 2,9 C 11,5 C 9,3 km/h (2 Bft) 97,41 %
26.04.2016 15:00 11,0 C 60 % 1003,0 hPa 0,0 l/m 7,0 km/h (2 Bft) NW 0,30 h 0,254 mm 1,6 UV-I 363 W/m 3,4 C 10,1 C 13,2 km/h (3 Bft) 98,91 %
26.04.2016 16:00 9,6 C 70 % 1003,3 hPa 0,0 l/m 8,2 km/h (2 Bft) W 0,15 h 0,203 mm 1,0 UV-I 286 W/m 4,5 C 8,1 C 15,8 km/h (3 Bft) 97,44 %
26.04.2016 17:00 7,6 C 73 % 1004,2 hPa 0,0 l/m 9,7 km/h (2 Bft) W 0,00 h 0,152 mm 0,6 UV-I 150 W/m 3,0 C 5,0 C 18,1 km/h (3 Bft) 99,03 %
26.04.2016 18:00 5,3 C 79 % 1005,2 hPa 0,0 l/m 8,2 km/h (2 Bft) W-NW 0,00 h 0,102 mm 0,0 UV-I 22 W/m 1,9 C 3,7 C 15,3 km/h (3 Bft) 97,48 %
26.04.2016 19:00 3,5 C 87 % 1005,9 hPa 1,0 l/m 8,4 km/h (2 Bft) W-SW 0,00 h 0,025 mm 0,0 UV-I 8 W/m 1,6 C 1,6 C 14,0 km/h (3 Bft) 99,09 %
26.04.2016 20:00 2,5 C 91 % 1006,2 hPa 1,4 l/m 6,5 km/h (2 Bft) S-SW 0,00 h 0,000 mm 0,0 UV-I 0 W/m 1,1 C 1,7 C 9,5 km/h (2 Bft) 97,85 %
26.04.2016 21:00 1,5 C 94 % 1006,3 hPa 1,2 l/m 4,2 km/h (1 Bft) S-SO 0,00 h 0,000 mm 0,0 UV-I 0 W/m 0,6 C 1,3 C 6,8 km/h (2 Bft) 99,00 %
26.04.2016 22:00 1,2 C 95 % 1006,1 hPa 0,8 l/m 3,0 km/h (1 Bft) S-SO 0,00 h 0,000 mm 0,0 UV-I 0 W/m 0,5 C 1,2 C 5,5 km/h (1 Bft) 97,47 %
26.04.2016 23:00 1,3 C 96 % 1005,5 hPa 1,0 l/m 5,0 km/h (1 Bft) SO 0,00 h 0,000 mm 0,0 UV-I 0 W/m 0,7 C 0,7 C 7,8 km/h (2 Bft) 99,09 %
27.04.2016 00:00 1,3 C 96 % 1004,8 hPa 0,8 l/m 5,8 km/h (2 Bft) O 0,00 h 0,000 mm 0,0 UV-I 0 W/m 0,8 C 0,8 C 8,3 km/h (2 Bft) 97,52 %
27.04.2016 01:00 1,8 C 96 % 1004,2 hPa 0,4 l/m 6,1 km/h (2 Bft) NO 0,00 h 0,000 mm 0,0 UV-I 0 W/m 1,2 C 1,3 C 8,3 km/h (2 Bft) 98,99 %
27.04.2016 02:00 1,8 C 96 % 1004,4 hPa 1,0 l/m 2,6 km/h (1 Bft) N-NO 0,00 h 0,000 mm 0,0 UV-I 0 W/m 1,2 C 1,8 C 4,4 km/h (1 Bft) 97,61 %
27.04.2016 03:00 0,7 C 96 % 1005,3 hPa 0,0 l/m 2,4 km/h (1 Bft) W-NW 0,00 h 0,000 mm 0,0 UV-I 0 W/m 0,1 C 0,7 C 4,0 km/h (1 Bft) 99,01 %
27.04.2016 04:00 0,8 C 97 % 1006,1 hPa 0,2 l/m 5,9 km/h (2 Bft) S-SW 0,00 h 0,000 mm 0,0 UV-I 0 W/m 0,4 C 0,5 C 8,3 km/h (2 Bft) 97,59 %
27.04.2016 05:00 1,2 C 97 % 1006,8 hPa 0,8 l/m 7,9 km/h (2 Bft) SW 0,00 h 0,000 mm 0,0 UV-I 0 W/m 0,8 C -0,3 C 11,6 km/h (2 Bft) 98,77 %
27.04.2016 06:00 1,8 C 96 % 1007,5 hPa 0,4 l/m 9,1 km/h (2 Bft) S-SW 0,00 h 0,000 mm 0,0 UV-I 13 W/m 1,2 C -0,7 C 13,4 km/h (3 Bft) 97,68 %
27.04.2016 07:00 2,2 C 95 % 1008,2 hPa 0,2 l/m 11,2 km/h (2 Bft) W-SW 0,00 h 0,000 mm 0,0 UV-I 29 W/m 1,5 C -1,8 C 16,0 km/h (3 Bft) 99,16 %
27.04.2016 08:00 2,2 C 94 % 1008,9 hPa 0,6 l/m 9,5 km/h (2 Bft) W-SW 0,00 h 0,025 mm 0,0 UV-I 51 W/m 1,4 C -0,5 C 14,1 km/h (3 Bft) 98,16 %
27.04.2016 09:00 2,3 C 94 % 1009,5 hPa 0,2 l/m 12,3 km/h (3 Bft) SW 0,00 h 0,026 mm 0,5 UV-I 126 W/m 1,5 C -2,4 C 17,7 km/h (3 Bft) 98,60 %
27.04.2016 10:00 2,5 C 92 % 1010,2 hPa 0,0 l/m 14,7 km/h (3 Bft) W-SW 0,00 h 0,051 mm 0,6 UV-I 141 W/m 1,3 C -3,6 C 21,0 km/h (4 Bft) 97,74 %
27.04.2016 11:00 1,7 C 93 % 1010,8 hPa 0,0 l/m 8,9 km/h (2 Bft) W-SW 0,00 h 0,050 mm 0,6 UV-I 105 W/m 0,7 C -0,7 C 14,0 km/h (3 Bft) 98,90 %
27.04.2016 12:00 2,2 C 93 % 1011,2 hPa 0,4 l/m 10,8 km/h (2 Bft) W-SW 0,00 h 0,051 mm 1,0 UV-I 211 W/m 1,2 C -1,4 C 15,8 km/h (3 Bft) 98,02 %
27.04.2016 13:00 3,6 C 86 % 1011,1 hPa 0,6 l/m 15,6 km/h (3 Bft) SW 0,00 h 0,076 mm 1,1 UV-I 241 W/m 1,5 C -2,7 C 23,0 km/h (4 Bft) 98,78 %
27.04.2016 14:00 4,0 C 80 % 1011,6 hPa 0,0 l/m 15,4 km/h (3 Bft) W-SW 0,00 h 0,102 mm 0,9 UV-I 206 W/m 0,8 C -2,3 C 22,2 km/h (4 Bft) 97,76 %
27.04.2016 15:00 4,5 C 78 % 1011,9 hPa 0,0 l/m 13,4 km/h (3 Bft) W-SW 0,00 h 0,102 mm 0,7 UV-I 177 W/m 0,9 C -0,5 C 19,8 km/h (3 Bft) 99,07 %
27.04.2016 16:00 5,0 C 77 % 1012,2 hPa 0,0 l/m 8,8 km/h (2 Bft) W-SW 0,32 h 0,101 mm 0,9 UV-I 296 W/m 1,2 C 2,9 C 13,6 km/h (3 Bft) 97,84 %
27.04.2016 17:00 5,4 C 74 % 1012,4 hPa 0,0 l/m 12,9 km/h (3 Bft) SW 0,78 h 0,127 mm 0,7 UV-I 309 W/m 1,2 C 0,8 C 18,9 km/h (3 Bft) 98,60 %
27.04.2016 18:00 5,5 C 74 % 1012,5 hPa 0,2 l/m 10,9 km/h (2 Bft) W-SW 0,18 h 0,153 mm 0,0 UV-I 102 W/m 1,3 C 2,2 C 17,0 km/h (3 Bft) 97,83 %
27.04.2016 19:00 2,9 C 87 % 1013,3 hPa 0,0 l/m 6,5 km/h (2 Bft) S 0,58 h 0,076 mm 0,0 UV-I 75 W/m 0,9 C 1,5 C 10,6 km/h (2 Bft) 98,89 %
27.04.2016 20:00 2,1 C 90 % 1013,7 hPa 0,0 l/m 6,6 km/h (2 Bft) S 0,02 h 0,025 mm 0,0 UV-I 6 W/m 0,7 C 1,2 C 9,8 km/h (2 Bft) 97,77 %
27.04.2016 21:00 2,1 C 87 % 1014,3 hPa 0,0 l/m 7,6 km/h (2 Bft) S-SW 0,00 h 0,000 mm 0,0 UV-I 0 W/m 0,1 C 0,7 C 10,7 km/h (2 Bft) 99,24 %
27.04.2016 22:00 1,7 C 86 % 1014,7 hPa 0,0 l/m 5,4 km/h (1 Bft) S-SW 0,00 h 0,000 mm 0,0 UV-I 0 W/m -0,4 C 1,6 C 7,2 km/h (2 Bft) 97,04 %
27.04.2016 23:00 0,9 C 90 % 1015,1 hPa 0,0 l/m 3,7 km/h (1 Bft) W-SW 0,00 h 0,000 mm 0,0 UV-I 0 W/m -0,6 C 0,8 C 6,0 km/h (2 Bft) 98,73 %
28.04.2016 00:00 0,4 C 92 % 1015,4 hPa 0,0 l/m 2,1 km/h (1 Bft) W-SW 0,00 h 0,000 mm 0,0 UV-I 0 W/m -0,8 C 0,4 C 3,3 km/h (1 Bft) 97,87 %
28.04.2016 01:00 -0,1 C 93 % 1015,3 hPa 0,0 l/m 2,9 km/h (1 Bft) S-SO 0,00 h 0,000 mm 0,0 UV-I 0 W/m -1,1 C -0,1 C 4,8 km/h (1 Bft) 98,24 %
28.04.2016 02:00 -0,8 C 95 % 1015,3 hPa 0,0 l/m 2,8 km/h (1 Bft) O 0,00 h 0,000 mm 0,0 UV-I 0 W/m -1,6 C -0,8 C 3,8 km/h (1 Bft) 97,44 %
28.04.2016 03:00 -1,3 C 95 % 1015,3 hPa 0,0 l/m 0,7 km/h (0 Bft) O-SO 0,00 h 0,000 mm 0,0 UV-I 0 W/m -1,9 C -1,3 C 1,6 km/h (1 Bft) 98,34 %
28.04.2016 04:00 -1,7 C 96 % 1015,4 hPa 0,0 l/m 0,7 km/h (0 Bft) O-SO 0,00 h 0,000 mm 0,0 UV-I 0 W/m -2,2 C -1,7 C 1,5 km/h (1 Bft) 98,27 %
28.04.2016 05:00 -2,2 C 96 % 1015,3 hPa 0,0 l/m 1,3 km/h (1 Bft) O-NO 0,00 h 0,000 mm 0,0 UV-I 6 W/m -2,8 C -2,2 C 2,2 km/h (1 Bft) 98,18 %
28.04.2016 06:00 -2,2 C 96 % 1015,6 hPa 0,0 l/m 0,9 km/h (0 Bft) SO 0,00 h 0,000 mm 0,0 UV-I 21 W/m -2,7 C -2,2 C 1,7 km/h (1 Bft) 98,20 %
28.04.2016 07:00 -0,3 C 95 % 1016,0 hPa 0,2 l/m 0,7 km/h (0 Bft) SO 0,88 h 0,000 mm 0,5 UV-I 183 W/m -0,9 C -0,3 C 1,5 km/h (1 Bft) 96,95 %
28.04.2016 08:00 2,1 C 91 % 1016,2 hPa 0,0 l/m 3,7 km/h (1 Bft) N-NO 0,78 h 0,051 mm 0,8 UV-I 285 W/m 0,8 C 2,0 C 5,5 km/h (1 Bft) 99,15 %
28.04.2016 09:00 3,0 C 92 % 1016,3 hPa 0,0 l/m 4,0 km/h (1 Bft) N-NO 0,82 h 0,101 mm 1,6 UV-I 512 W/m 1,8 C 2,8 C 6,8 km/h (2 Bft) 97,96 %
28.04.2016 10:00 5,0 C 86 % 1016,6 hPa 0,0 l/m 3,4 km/h (1 Bft) N-NO 0,72 h 0,204 mm 2,0 UV-I 526 W/m 2,9 C 4,9 C 6,3 km/h (2 Bft) 99,06 %
28.04.2016 11:00 6,7 C 77 % 1016,6 hPa 0,0 l/m 4,6 km/h (1 Bft) N-NO 0,67 h 0,203 mm 2,2 UV-I 514 W/m 3,0 C 6,4 C 8,0 km/h (2 Bft) 97,33 %
28.04.2016 12:00 7,6 C 63 % 1016,6 hPa 0,0 l/m 4,6 km/h (1 Bft) O-NO 0,53 h 0,228 mm 2,3 UV-I 488 W/m 1,0 C 7,3 C 7,2 km/h (2 Bft) 98,58 %
28.04.2016 13:00 8,5 C 60 % 1016,4 hPa 0,0 l/m 3,0 km/h (1 Bft) NO 0,78 h 0,229 mm 2,6 UV-I 558 W/m 1,0 C 8,5 C 5,2 km/h (1 Bft) 97,76 %
28.04.2016 14:00 9,1 C 45 % 1016,2 hPa 0,0 l/m 4,8 km/h (1 Bft) S-SW 0,57 h 0,254 mm 2,4 UV-I 489 W/m -2,3 C 8,8 C 7,9 km/h (2 Bft) 99,08 %
28.04.2016 15:00 9,8 C 48 % 1015,9 hPa 0,0 l/m 4,0 km/h (1 Bft) S 0,70 h 0,254 mm 2,0 UV-I 538 W/m -0,9 C 9,5 C 6,8 km/h (2 Bft) 97,90 %
28.04.2016 16:00 10,4 C 46 % 1015,7 hPa 0,0 l/m 5,5 km/h (1 Bft) W-SW 1,00 h 0,279 mm 1,6 UV-I 578 W/m -0,9 C 9,8 C 8,9 km/h (2 Bft) 98,77 %
28.04.2016 17:00 10,7 C 43 % 1015,6 hPa 0,0 l/m 5,3 km/h (1 Bft) S-SW 0,93 h 0,305 mm 0,8 UV-I 382 W/m -1,5 C 10,2 C 8,4 km/h (2 Bft) 97,05 %
28.04.2016 18:00 10,5 C 42 % 1015,8 hPa 0,0 l/m 5,1 km/h (1 Bft) SW 0,95 h 0,203 mm 0,5 UV-I 211 W/m -2,0 C 10,2 C 7,9 km/h (2 Bft) 98,60 %
28.04.2016 19:00 8,6 C 57 % 1016,2 hPa 0,0 l/m 3,5 km/h (1 Bft) N-NO 0,27 h 0,127 mm 0,0 UV-I 53 W/m 0,4 C 8,3 C 6,8 km/h (2 Bft) 97,29 %
28.04.2016 20:00 6,3 C 70 % 1016,7 hPa 0,0 l/m 2,4 km/h (1 Bft) N-NO 0,05 h 0,051 mm 0,0 UV-I 7 W/m 1,2 C 6,3 C 3,7 km/h (1 Bft) 99,18 %
28.04.2016 21:00 4,8 C 79 % 1017,4 hPa 0,0 l/m 0,7 km/h (0 Bft) N-NO 0,00 h 0,000 mm 0,0 UV-I 0 W/m 1,5 C 4,8 C 1,2 km/h (1 Bft) 97,80 %
28.04.2016 22:00 3,4 C 84 % 1017,9 hPa 0,0 l/m 2,4 km/h (1 Bft) O 0,00 h 0,000 mm 0,0 UV-I 0 W/m 0,9 C 3,4 C 3,5 km/h (1 Bft) 98,66 %
28.04.2016 23:00 2,7 C 86 % 1018,1 hPa 0,0 l/m 1,5 km/h (1 Bft) SW 0,00 h 0,000 mm 0,0 UV-I 0 W/m 0,5 C 2,7 C 2,5 km/h (1 Bft) 97,41 %
29.04.2016 00:00 2,1 C 87 % 1018,5 hPa 0,0 l/m 3,1 km/h (1 Bft) S-SW 0,00 h 0,000 mm 0,0 UV-I 0 W/m 0,2 C 2,1 C 4,6 km/h (1 Bft) 98,53 %
29.04.2016 01:00 1,5 C 88 % 1018,6 hPa 0,0 l/m 3,0 km/h (1 Bft) S 0,00 h 0,000 mm 0,0 UV-I 0 W/m -0,2 C 1,5 C 4,2 km/h (1 Bft) 98,13 %
29.04.2016 02:00 1,2 C 88 % 1018,5 hPa 0,0 l/m 2,5 km/h (1 Bft) S 0,00 h 0,000 mm 0,0 UV-I 0 W/m -0,6 C 1,2 C 3,8 km/h (1 Bft) 98,31 %
29.04.2016 03:00 0,7 C 88 % 1018,6 hPa 0,0 l/m 2,0 km/h (1 Bft) S 0,00 h 0,000 mm 0,0 UV-I 0 W/m -1,0 C 0,7 C 3,3 km/h (1 Bft) 97,79 %
29.04.2016 04:00 -0,2 C 91 % 1018,9 hPa 0,0 l/m 1,1 km/h (1 Bft) S 0,00 h 0,000 mm 0,0 UV-I 0 W/m -1,5 C -0,2 C 1,9 km/h (1 Bft) 98,46 %
29.04.2016 05:00 -0,9 C 93 % 1019,2 hPa 0,0 l/m 1,0 km/h (0 Bft) S 0,02 h 0,000 mm 0,0 UV-I 7 W/m -1,8 C -0,9 C 1,9 km/h (1 Bft) 97,63 %
29.04.2016 06:00 -0,6 C 93 % 1019,4 hPa 0,0 l/m 1,4 km/h (1 Bft) O-NO 0,02 h 0,000 mm 0,0 UV-I 23 W/m -1,5 C -0,6 C 2,3 km/h (1 Bft) 98,29 %
29.04.2016 07:00 1,5 C 90 % 1019,8 hPa 0,0 l/m 3,2 km/h (1 Bft) O-NO 0,95 h 0,000 mm 0,4 UV-I 194 W/m 0,0 C 1,4 C 4,5 km/h (1 Bft) 99,00 %
29.04.2016 08:00 4,2 C 83 % 1019,9 hPa 0,0 l/m 5,9 km/h (2 Bft) NO 0,93 h 0,076 mm 0,8 UV-I 307 W/m 1,6 C 4,0 C 8,5 km/h (2 Bft) 97,61 %
29.04.2016 09:00 6,5 C 76 % 1019,9 hPa 0,0 l/m 5,0 km/h (1 Bft) O-NO 1,00 h 0,127 mm 1,6 UV-I 530 W/m 2,6 C 6,3 C 7,5 km/h (2 Bft) 99,21 %
29.04.2016 10:00 8,2 C 71 % 1019,7 hPa 0,0 l/m 8,5 km/h (2 Bft) O-NO 1,00 h 0,229 mm 2,6 UV-I 676 W/m 3,2 C 6,5 C 12,9 km/h (3 Bft) 98,14 %
29.04.2016 11:00 10,4 C 63 % 1019,5 hPa 0,0 l/m 9,9 km/h (2 Bft) O-NO 1,00 h 0,330 mm 3,5 UV-I 782 W/m 3,7 C 8,1 C 14,6 km/h (3 Bft) 98,73 %
29.04.2016 12:00 12,4 C 54 % 1019,0 hPa 0,0 l/m 10,1 km/h (2 Bft) NO 1,00 h 0,406 mm 4,1 UV-I 836 W/m 3,2 C 10,1 C 15,2 km/h (3 Bft) 98,51 %
29.04.2016 13:00 13,5 C 48 % 1018,4 hPa 0,0 l/m 9,7 km/h (2 Bft) NO 1,00 h 0,458 mm 4,2 UV-I 835 W/m 2,7 C 11,5 C 15,0 km/h (3 Bft) 98,15 %
29.04.2016 14:00 14,3 C 42 % 1018,0 hPa 0,0 l/m 6,1 km/h (2 Bft) O-NO 1,00 h 0,482 mm 3,8 UV-I 787 W/m 1,7 C 13,6 C 10,2 km/h (2 Bft) 98,87 %
29.04.2016 15:00 14,8 C 39 % 1017,7 hPa 0,0 l/m 5,3 km/h (1 Bft) NO 1,00 h 0,457 mm 2,9 UV-I 691 W/m 1,0 C 14,5 C 8,5 km/h (2 Bft) 98,00 %
29.04.2016 16:00 15,1 C 40 % 1017,4 hPa 0,0 l/m 4,1 km/h (1 Bft) N-NO 1,00 h 0,407 mm 1,8 UV-I 564 W/m 1,4 C 15,0 C 7,0 km/h (2 Bft) 98,83 %
29.04.2016 17:00 15,3 C 38 % 1017,2 hPa 0,0 l/m 7,6 km/h (2 Bft) O-NO 1,00 h 0,330 mm 1,0 UV-I 398 W/m 1,0 C 14,4 C 11,2 km/h (2 Bft) 97,67 %
29.04.2016 18:00 14,9 C 38 % 1016,8 hPa 0,0 l/m 6,8 km/h (2 Bft) O-NO 1,00 h 0,279 mm 0,5 UV-I 220 W/m 0,8 C 14,5 C 9,6 km/h (2 Bft) 99,28 %
29.04.2016 19:00 13,5 C 46 % 1016,9 hPa 0,0 l/m 5,2 km/h (1 Bft) O-NO 0,27 h 0,178 mm 0,0 UV-I 53 W/m 2,0 C 13,5 C 6,8 km/h (2 Bft) 97,60 %
29.04.2016 20:00 10,9 C 53 % 1017,0 hPa 0,0 l/m 3,5 km/h (1 Bft) O-NO 0,05 h 0,076 mm 0,0 UV-I 7 W/m 1,6 C 10,9 C 4,9 km/h (1 Bft) 99,15 %
29.04.2016 21:00 10,1 C 54 % 1017,4 hPa 0,0 l/m 7,0 km/h (2 Bft) O-NO 0,00 h 0,026 mm 0,0 UV-I 0 W/m 1,1 C 9,3 C 9,8 km/h (2 Bft) 97,43 %
29.04.2016 22:00 9,5 C 60 % 1017,3 hPa 0,0 l/m 10,2 km/h (2 Bft) O-NO 0,00 h 0,051 mm 0,0 UV-I 0 W/m 2,0 C 6,9 C 15,0 km/h (3 Bft) 99,02 %
29.04.2016 23:00 8,3 C 63 % 1017,2 hPa 0,0 l/m 9,5 km/h (2 Bft) O-NO 0,00 h 0,050 mm 0,0 UV-I 0 W/m 1,7 C 6,1 C 13,5 km/h (3 Bft) 97,94 %
30.04.2016 00:00 7,0 C 69 % 1017,2 hPa 0,0 l/m 8,3 km/h (2 Bft) O-NO 0,00 h 0,000 mm 0,0 UV-I 0 W/m 1,6 C 5,5 C 12,0 km/h (2 Bft) 99,04 %
30.04.2016 01:00 6,3 C 71 % 1017,1 hPa 0,0 l/m 4,7 km/h (1 Bft) O-NO 0,00 h 0,025 mm 0,0 UV-I 0 W/m 1,4 C 6,1 C 6,8 km/h (2 Bft) 97,76 %
30.04.2016 02:00 5,3 C 75 % 1017,0 hPa 0,0 l/m 2,8 km/h (1 Bft) O-NO 0,00 h 0,026 mm 0,0 UV-I 0 W/m 1,2 C 5,3 C 4,1 km/h (1 Bft) 98,01 %
30.04.2016 03:00 4,8 C 76 % 1017,0 hPa 0,0 l/m 2,7 km/h (1 Bft) O-NO 0,00 h 0,000 mm 0,0 UV-I 0 W/m 1,0 C 4,8 C 4,1 km/h (1 Bft) 98,46 %
30.04.2016 04:00 3,9 C 79 % 1017,1 hPa 0,0 l/m 1,9 km/h (1 Bft) O-NO 0,00 h 0,000 mm 0,0 UV-I 0 W/m 0,7 C 3,9 C 3,0 km/h (1 Bft) 97,75 %
30.04.2016 05:00 1,8 C 88 % 1017,1 hPa 0,0 l/m 0,7 km/h (0 Bft) O-NO 0,00 h 0,000 mm 0,0 UV-I 6 W/m 0,0 C 1,8 C 1,2 km/h (1 Bft) 99,04 %
30.04.2016 06:00 1,6 C 89 % 1017,2 hPa 0,0 l/m 0,6 km/h (0 Bft) O-NO 0,00 h 0,000 mm 0,0 UV-I 21 W/m 0,1 C 1,6 C 1,2 km/h (1 Bft) 97,16 %
30.04.2016 07:00 4,6 C 83 % 1017,3 hPa 0,0 l/m 4,2 km/h (1 Bft) O-NO 0,88 h 0,000 mm 0,5 UV-I 194 W/m 1,9 C 4,5 C 5,8 km/h (2 Bft) 99,20 %
30.04.2016 08:00 7,2 C 75 % 1017,2 hPa 0,0 l/m 6,8 km/h (2 Bft) O-NO 0,93 h 0,076 mm 0,9 UV-I 311 W/m 3,1 C 6,6 C 9,8 km/h (2 Bft) 97,53 %
30.04.2016 09:00 9,7 C 68 % 1017,1 hPa 0,0 l/m 9,2 km/h (2 Bft) NO 1,00 h 0,152 mm 1,8 UV-I 539 W/m 4,1 C 7,8 C 13,5 km/h (3 Bft) 98,71 %
30.04.2016 10:00 11,9 C 64 % 1016,8 hPa 0,0 l/m 10,2 km/h (2 Bft) NO 1,00 h 0,280 mm 2,8 UV-I 682 W/m 5,3 C 9,7 C 15,0 km/h (3 Bft) 98,06 %
30.04.2016 11:00 14,0 C 59 % 1016,3 hPa 0,0 l/m 12,1 km/h (2 Bft) NO 1,00 h 0,381 mm 3,7 UV-I 784 W/m 6,1 C 11,1 C 17,5 km/h (3 Bft) 98,86 %
30.04.2016 12:00 15,9 C 49 % 1015,6 hPa 0,0 l/m 13,1 km/h (3 Bft) NO 1,00 h 0,457 mm 4,4 UV-I 828 W/m 5,3 C 13,1 C 18,2 km/h (3 Bft) 98,41 %
30.04.2016 13:00 17,4 C 43 % 1015,0 hPa 0,0 l/m 11,8 km/h (2 Bft) NO 1,00 h 0,508 mm 4,5 UV-I 839 W/m 4,6 C 15,2 C 16,8 km/h (3 Bft) 98,19 %
30.04.2016 14:00 18,2 C 35 % 1014,3 hPa 0,0 l/m 15,8 km/h (3 Bft) O-NO 1,00 h 0,533 mm 4,0 UV-I 800 W/m 2,6 C 15,0 C 21,4 km/h (4 Bft) 98,17 %
30.04.2016 15:00 18,8 C 33 % 1013,5 hPa 0,0 l/m 16,7 km/h (3 Bft) O-NO 1,00 h 0,585 mm 3,0 UV-I 713 W/m 2,2 C 15,4 C 22,4 km/h (4 Bft) 97,58 %
30.04.2016 16:00 18,9 C 29 % 1012,8 hPa 0,0 l/m 19,0 km/h (3 Bft) O-NO 1,00 h 0,558 mm 2,0 UV-I 582 W/m 0,3 C 15,0 C 25,9 km/h (4 Bft) 99,23 %
30.04.2016 17:00 18,6 C 30 % 1012,3 hPa 0,0 l/m 21,1 km/h (4 Bft) O-NO 1,00 h 0,508 mm 1,0 UV-I 387 W/m 0,6 C 14,2 C 27,7 km/h (4 Bft) 97,88 %
30.04.2016 18:00 17,8 C 37 % 1012,0 hPa 0,0 l/m 22,2 km/h (4 Bft) O-NO 1,00 h 0,407 mm 0,5 UV-I 204 W/m 2,7 C 12,9 C 29,7 km/h (5 Bft) 99,03 %
30.04.2016 19:00 16,4 C 42 % 1011,8 hPa 0,0 l/m 17,4 km/h (3 Bft) O-NO 0,38 h 0,305 mm 0,0 UV-I 57 W/m 3,4 C 12,3 C 23,4 km/h (4 Bft) 97,82 %
30.04.2016 20:00 14,6 C 48 % 1011,6 hPa 0,0 l/m 12,5 km/h (3 Bft) O-NO 0,10 h 0,152 mm 0,0 UV-I 8 W/m 3,7 C 11,6 C 17,1 km/h (3 Bft) 99,39 %
30.04.2016 21:00 12,9 C 54 % 1011,6 hPa 0,0 l/m 10,4 km/h (2 Bft) O-NO 0,00 h 0,076 mm 0,0 UV-I 0 W/m 3,9 C 10,6 C 15,0 km/h (3 Bft) 98,05 %
30.04.2016 22:00 11,9 C 58 % 1011,4 hPa 0,0 l/m 14,0 km/h (3 Bft) O-NO 0,00 h 0,051 mm 0,0 UV-I 0 W/m 3,9 C 7,9 C 19,2 km/h (3 Bft) 98,40 %
30.04.2016 23:00 10,8 C 62 % 1011,4 hPa 0,0 l/m 11,4 km/h (2 Bft) O-NO 0,00 h 0,076 mm 0,0 UV-I 0 W/m 4,0 C 7,9 C 15,7 km/h (3 Bft) 98,11 %
01.05.2016 00:00 9,8 C 67 % 1011,3 hPa 0,0 l/m 11,5 km/h (2 Bft) O-NO 0,00 h 0,000 mm 0,0 UV-I 0 W/m 3,9 C 6,6 C 16,0 km/h (3 Bft) 99,27 %
01.05.2016 01:00 9,7 C 67 % 1010,8 hPa 0,0 l/m 13,2 km/h (3 Bft) O-NO 0,00 h 0,051 mm 0,0 UV-I 0 W/m 3,9 C 5,6 C 18,3 km/h (3 Bft) 97,89 %
01.05.2016 02:00 9,6 C 68 % 1010,9 hPa 0,0 l/m 12,7 km/h (3 Bft) O-NO 0,00 h 0,051 mm 0,0 UV-I 0 W/m 3,9 C 5,8 C 17,2 km/h (3 Bft) 99,01 %
01.05.2016 03:00 9,6 C 68 % 1010,6 hPa 0,0 l/m 13,7 km/h (3 Bft) NO 0,00 h 0,050 mm 0,0 UV-I 0 W/m 4,0 C 5,3 C 18,7 km/h (3 Bft) 98,44 %
01.05.2016 04:00 9,7 C 67 % 1010,5 hPa 0,0 l/m 16,6 km/h (3 Bft) O-NO 0,00 h 0,051 mm 0,0 UV-I 0 W/m 4,0 C 4,3 C 22,0 km/h (4 Bft) 98,94 %
01.05.2016 05:00 9,7 C 68 % 1010,3 hPa 0,0 l/m 19,5 km/h (3 Bft) O-NO 0,00 h 0,051 mm 0,0 UV-I 6 W/m 4,0 C 3,1 C 26,5 km/h (4 Bft) 97,81 %
01.05.2016 06:00 9,7 C 70 % 1010,3 hPa 0,0 l/m 21,9 km/h (4 Bft) O-NO 0,00 h 0,076 mm 0,0 UV-I 33 W/m 4,4 C 2,3 C 29,2 km/h (5 Bft) 99,07 %
01.05.2016 07:00 10,1 C 70 % 1010,8 hPa 0,0 l/m 21,0 km/h (4 Bft) O-NO 0,00 h 0,076 mm 0,0 UV-I 127 W/m 5,0 C 3,2 C 27,8 km/h (4 Bft) 97,77 %
01.05.2016 08:00 11,4 C 68 % 1011,5 hPa 0,0 l/m 24,7 km/h (4 Bft) O-NO 0,97 h 0,127 mm 0,8 UV-I 298 W/m 5,7 C 3,8 C 32,5 km/h (5 Bft) 99,27 %
01.05.2016 09:00 12,1 C 68 % 1012,1 hPa 0,0 l/m 22,7 km/h (4 Bft) NO 0,73 h 0,229 mm 1,2 UV-I 331 W/m 6,3 C 5,3 C 30,7 km/h (5 Bft) 97,96 %
01.05.2016 10:00 12,5 C 68 % 1013,0 hPa 0,0 l/m 24,3 km/h (4 Bft) O-NO 0,00 h 0,254 mm 1,2 UV-I 270 W/m 6,8 C 5,5 C 31,7 km/h (5 Bft) 99,44 %
01.05.2016 11:00 12,2 C 70 % 1013,6 hPa 0,0 l/m 22,7 km/h (4 Bft) O-NO 0,00 h 0,229 mm 1,0 UV-I 198 W/m 6,9 C 5,5 C 29,9 km/h (5 Bft) 98,17 %
01.05.2016 12:00 11,8 C 75 % 1014,0 hPa 0,0 l/m 19,2 km/h (3 Bft) O-NO 0,00 h 0,177 mm 0,7 UV-I 142 W/m 7,5 C 5,9 C 25,0 km/h (4 Bft) 98,78 %
01.05.2016 13:00 11,4 C 80 % 1014,5 hPa 0,8 l/m 16,2 km/h (3 Bft) O-NO 0,00 h 0,127 mm 0,9 UV-I 157 W/m 8,0 C 6,4 C 21,5 km/h (4 Bft) 97,91 %
01.05.2016 14:00 10,8 C 88 % 1014,8 hPa 1,4 l/m 14,7 km/h (3 Bft) NO 0,00 h 0,102 mm 0,7 UV-I 135 W/m 8,8 C 6,3 C 20,0 km/h (4 Bft) 99,11 %
01.05.2016 15:00 10,6 C 91 % 1015,0 hPa 0,8 l/m 10,7 km/h (2 Bft) NO 0,00 h 0,076 mm 0,6 UV-I 109 W/m 9,1 C 7,9 C 15,7 km/h (3 Bft) 97,89 %
01.05.2016 16:00 10,6 C 93 % 1015,3 hPa 0,8 l/m 4,7 km/h (1 Bft) N-NO 0,00 h 0,051 mm 0,0 UV-I 81 W/m 9,5 C 10,5 C 9,1 km/h (2 Bft) 99,33 %
01.05.2016 17:00 10,6 C 94 % 1015,8 hPa 1,2 l/m 2,2 km/h (1 Bft) N-NO 0,00 h 0,051 mm 0,0 UV-I 66 W/m 9,7 C 10,6 C 4,5 km/h (1 Bft) 97,93 %
01.05.2016 18:00 10,5 C 95 % 1016,2 hPa 1,6 l/m 4,0 km/h (1 Bft) NO 0,00 h 0,025 mm 0,0 UV-I 33 W/m 9,7 C 10,4 C 6,2 km/h (2 Bft) 99,54 %
01.05.2016 19:00 10,3 C 94 % 1016,6 hPa 0,6 l/m 2,8 km/h (1 Bft) N-NO 0,00 h 0,026 mm 0,0 UV-I 24 W/m 9,4 C 10,3 C 5,0 km/h (1 Bft) 98,37 %
01.05.2016 20:00 9,9 C 96 % 1016,9 hPa 0,0 l/m 0,2 km/h (0 Bft) S-SO 0,00 h 0,025 mm 0,0 UV-I 6 W/m 9,3 C 9,9 C 0,6 km/h (0 Bft) 99,05 %
01.05.2016 21:00 9,6 C 97 % 1017,4 hPa 0,0 l/m 1,2 km/h (1 Bft) SO 0,00 h 0,000 mm 0,0 UV-I 0 W/m 9,1 C 9,6 C 2,1 km/h (1 Bft) 97,46 %
01.05.2016 22:00 9,4 C 97 % 1017,8 hPa 0,0 l/m 2,3 km/h (1 Bft) S-SO 0,00 h 0,000 mm 0,0 UV-I 0 W/m 9,0 C 9,4 C 3,4 km/h (1 Bft) 99,24 %
01.05.2016 23:00 9,4 C 97 % 1017,9 hPa 0,0 l/m 1,7 km/h (1 Bft) W 0,00 h 0,000 mm 0,0 UV-I 0 W/m 8,9 C 9,4 C 2,7 km/h (1 Bft) 97,60 %
Min-Datum _ 28.04.16 30.04.16 26.04.16 - 26.04.16 - - - - - 28.04.16 25.04.16 26.04.16 25.04.16
_ Min-Zeit 05:42 16:09 13:51 - 00:19 - - - - - 14:25 15:28 00:19 00:02
Minimum _ -2,6 C 26 % 1002,7 hPa - 0,0 km/h (0 Bft) - - - - - -3,7 C -7,3 C 0,0 km/h (0 Bft) 9,09 %
Max-Datum _ 30.04.16 27.04.16 29.04.16 01.05.16 01.05.16 - 26.04.16 30.04.16 26.04.16 26.04.16 01.05.16 30.04.16 01.05.16 25.04.16
_ Max-Zeit 15:50 03:40 08:25 18:02 08:36 - 13:50 15:00 13:10 12:33 17:47 14:18 08:30 00:00
Maximum _ 19,1 C 97 % 1020,0 hPa 1,6 l/m 31,1 km/h
O-NO (5 Bft)
- 0,08 h 0,585 mm 5,0 UV-I 1104 W/m 9,9 C 17,4 C 41,8 km/h
O-NO (6 Bft)
100,00 %
Durchschnitt _ 6,3 C 76 % 1012,7 hPa #21,2 l/m 7,8 km/h (2 Bft) O-NO #47:13 h #18,363 mm 1,7 UV-I 287 W/m 1,9 C 4,6 C 11,5 km/h (2 Bft) 98,29 %